Αναφορές Αεροδρομίων

 

KSJC - San Jose, California, USA
Distance from station: ΒΑ 14km
Ενημερώθηκε: 04/03/2024 16:53
Σχεδόν νεφελώδης
Σχεδόν νεφελώδης
 Ανεμος από ΝΝΑ
Ανεμος: ΝΝΑ 7 km/h
Θερμοκρασία: 8°C
Wind Chill: 7°C
Σημείο Δρόσου: 6°C
Υγρασία: 87%
Βαρόμετρο: 1020.7 hPa
Clouds: Σχεδόν νεφελώδης
Visibility: 16 km
Cloud details: Few Clouds 366 m
Μερικώς νεφελώδης 1097 m
Σχεδόν νεφελώδης 1341 m
2024/03/04 14:53 KSJC 041453Z 15004KT 10SM FEW012 SCT036 BKN044 08/06 A3014 RMK AO2 SLP205 T00830056 51010
KNUQ - Moffett Nas/Mtn, California, USA
Distance from station: Β 14km
Ενημερώθηκε: 04/03/2024 17:35
Few Clouds
Few Clouds
 Ανεμος από calm
Ανεμος: Απνοια
Θερμοκρασία: 8°C
Σημείο Δρόσου: 7°C
Υγρασία: 93%
Βαρόμετρο: 1021 hPa
Clouds: Few Clouds
Visibility: 16 km
Cloud details: Few Clouds 1524 m
2024/03/04 15:35 KNUQ 041535Z AUTO 00000KT 10SM FEW050 08/07 A3015 RMK AO2
 
KPAO - Palo Alto, California, USA
Distance from station: ΒΒΔ 23km
Ενημερώθηκε: 04/03/2024 16:55
Σχεδόν νεφελώδης
Σχεδόν νεφελώδης
 Ανεμος από varies
Ανεμος: varies 7 km/h
Θερμοκρασία: 7°C
Wind Chill: 6°C
Σημείο Δρόσου: 6°C
Υγρασία: 93%
Βαρόμετρο: 1020.7 hPa
Clouds: Σχεδόν νεφελώδης
Visibility: 16 km
Cloud details: Few Clouds 305 m
Σχεδόν νεφελώδης 1524 m
2024/03/04 14:55 KPAO 041455Z VRB04KT 10SM FEW010 BKN050 07/06 A3014
KRHV - San Jose/Reid, California, USA
Distance from station: ΑΒΑ 19km
Ενημερώθηκε: 04/03/2024 07:55
NOT Current
Μερικώς νεφελώδης
Μερικώς νεφελώδης
 Ανεμος από calm
Ανεμος: Απνοια
Θερμοκρασία: 8°C
Σημείο Δρόσου: 7°C
Υγρασία: 93%
Βαρόμετρο: 1019.3 hPa
Clouds: Μερικώς νεφελώδης
Visibility: 16 km
Cloud details: Μερικώς νεφελώδης 914 m
2024/03/04 05:55 KRHV 040555Z 00000KT 10SM SCT030 08/07 A3010 RMK LAST
 
KOAK - Oakland, California, USA
Distance from station: ΒΒΔ 50km
Ενημερώθηκε: 04/03/2024 16:53
Σχεδόν νεφελώδης
Σχεδόν νεφελώδης
 Ανεμος από ΝΑ
Ανεμος: ΝΑ 11 km/h
Θερμοκρασία: 8°C
Wind Chill: 6°C
Σημείο Δρόσου: 7°C
Υγρασία: 93%
Βαρόμετρο: 1020.7 hPa
Clouds: Σχεδόν νεφελώδης
Visibility: 16 km
Cloud details: Few Clouds 488 m
Μερικώς νεφελώδης 1981 m
Σχεδόν νεφελώδης 4267 m
Σχεδόν νεφελώδης 7620 m
2024/03/04 14:53 KOAK 041453Z 13006KT 10SM FEW016 SCT065 BKN140 BKN250 08/07 A3014 RMK AO2 RAE33 SLP204 P0002 60002 T00780072 53007
KSQL - San Carlos Airpo, California, USA
Distance from station: ΒΔ 34km
Ενημερώθηκε: 04/03/2024 16:55
Σχεδόν νεφελώδης
Σχεδόν νεφελώδης
 Ανεμος από ΝΝΔ
Ανεμος: ΝΝΔ 6 km/h
Θερμοκρασία: 8°C
Σημείο Δρόσου: 7°C
Υγρασία: 93%
Βαρόμετρο: 1020.7 hPa
Clouds: Σχεδόν νεφελώδης
Visibility: 16 km
Cloud details: Σχεδόν νεφελώδης 1524 m
2024/03/04 14:55 KSQL 041455Z AUTO 20003KT 10SM BKN050 08/07 A3014 RMK AO2
 
KSFO - San Francisco, California, USA
Distance from station: ΒΔ 49km
Ενημερώθηκε: 04/03/2024 16:56
Σχεδόν νεφελώδης
Σχεδόν νεφελώδης
 Ανεμος από Ν
Ανεμος: Ν 6 km/h
Θερμοκρασία: 8°C
Σημείο Δρόσου: 6°C
Υγρασία: 87%
Βαρόμετρο: 1020.3 hPa
Clouds: Σχεδόν νεφελώδης
Visibility: 16 km
Cloud details: Few Clouds 610 m
Μερικώς νεφελώδης 1494 m
Σχεδόν νεφελώδης 1829 m
2024/03/04 14:56 KSFO 041456Z 19003KT 10SM FEW020 SCT049 BKN060 08/06 A3013 RMK AO2 RAE14 SLP203 P0000 60001 T00780061 53008 $
KE16 - San Martin, California, USA
Distance from station: ΑΝΑ 43km
Ενημερώθηκε: 04/03/2024 17:35
Fog, Συννεφιά
Fog, Συννεφιά
 Ανεμος από calm
Ανεμος: Απνοια
Θερμοκρασία: 6°C
Σημείο Δρόσου: 6°C
Υγρασία: 100%
Βαρόμετρο: 1022 hPa
Περίληψη: Fog
Clouds: Συννεφιά
Visibility: 0.4 km
Cloud details: Συννεφιά 61 m
2024/03/04 15:35 KE16 041535Z AUTO 00000KT M1/4SM FG OVC002 06/06 A3018 RMK AO2 PWINO PNO
 
KWVI - Watsonville, California, USA
Distance from station: ΝΝΑ 44km
Ενημερώθηκε: 04/03/2024 16:53
Σχεδόν νεφελώδης
Σχεδόν νεφελώδης
 Ανεμος από calm
Ανεμος: Απνοια
Θερμοκρασία: 6°C
Σημείο Δρόσου: 6°C
Υγρασία: 100%
Βαρόμετρο: 1020.7 hPa
Clouds: Σχεδόν νεφελώδης
Visibility: 16 km
Cloud details: Σχεδόν νεφελώδης 1524 m
2024/03/04 14:53 KWVI 041453Z AUTO 00000KT 10SM BKN050 06/06 A3014 RMK AO2 SLP208 60001 T00610056 51010
KHAF - Half Moon Bay, California, USA
Distance from station: ΔΒΔ 50km
Ενημερώθηκε: 04/03/2024 17:35
Αίθριος
Αίθριος
 Ανεμος από calm
Ανεμος: Απνοια
Θερμοκρασία: 7°C
Σημείο Δρόσου: 7°C
Υγρασία: 100%
Βαρόμετρο: 1021 hPa
Clouds: Αίθριος
Visibility: 14 km
2024/03/04 15:35 KHAF 041535Z AUTO 00000KT 9SM CLR 07/07 A3015 RMK AO2
 
KHWD - Hayward, California, USA
Distance from station: Β 44km
Ενημερώθηκε: 04/03/2024 16:54
Συννεφιά
Συννεφιά
 Ανεμος από ΑΝΑ
Ανεμος: ΑΝΑ 7 km/h
Θερμοκρασία: 9°C
Wind Chill: 8°C
Σημείο Δρόσου: 7°C
Υγρασία: 87%
Βαρόμετρο: 1020.3 hPa
Clouds: Συννεφιά
Visibility: 16 km
Cloud details: Σχεδόν νεφελώδης 853 m
Σχεδόν νεφελώδης 1006 m
Συννεφιά 1341 m
2024/03/04 14:54 KHWD 041454Z 12004KT 10SM BKN028 BKN033 OVC044 09/07 A3013 RMK AO2 SLP212 60000 T00940072 50005
KLVK - Livermore, California, USA
Distance from station: ΒΒΑ 51km
Ενημερώθηκε: 04/03/2024 16:53
Συννεφιά
Συννεφιά
 Ανεμος από calm
Ανεμος: Απνοια
Θερμοκρασία: 6°C
Σημείο Δρόσου: 5°C
Υγρασία: 93%
Βαρόμετρο: 1020.3 hPa
Clouds: Συννεφιά
Visibility: 16 km
Cloud details: Συννεφιά 1524 m
2024/03/04 14:53 KLVK 041453Z 00000KT 10SM OVC050 06/05 A3013 RMK AO2 SLP202 T00610050 51009